createdAt,value
2022-10-15T00:01:15.854Z,92.54
2022-10-15T00:03:44.219Z,92.29
2022-10-15T00:06:13.862Z,92.74
2022-10-15T00:08:40.964Z,93.42
2022-10-15T00:11:12.144Z,93.30
2022-10-15T00:13:39.487Z,93.54
2022-10-15T00:16:09.542Z,93.31
2022-10-15T00:18:36.069Z,93.97
2022-10-15T00:21:06.254Z,94.39
2022-10-15T00:23:32.740Z,94.65
2022-10-15T00:26:13.991Z,95.05
2022-10-15T00:28:41.088Z,95.14
2022-10-15T00:31:11.416Z,95.15
2022-10-15T00:33:38.460Z,94.87
2022-10-15T00:36:14.533Z,94.76
2022-10-15T00:38:41.406Z,94.60
2022-10-15T00:41:12.679Z,94.93
2022-10-15T00:43:41.214Z,94.95
2022-10-15T00:46:35.690Z,95.35
2022-10-15T00:49:26.006Z,93.85
2022-10-15T00:51:56.830Z,93.35
2022-10-15T00:54:23.801Z,93.30
2022-10-15T00:56:51.654Z,93.33
2022-10-15T00:59:22.434Z,94.12
2022-10-15T01:01:48.946Z,94.57
2022-10-15T01:04:18.755Z,94.73
2022-10-15T01:06:46.043Z,94.06
2022-10-15T01:09:13.296Z,93.57
2022-10-15T01:11:44.814Z,93.83
2022-10-15T01:14:31.654Z,93.44
2022-10-15T01:17:10.142Z,93.07
2022-10-15T01:19:54.766Z,93.52
2022-10-15T01:22:49.074Z,93.99
2022-10-15T01:25:22.066Z,94.07
2022-10-15T01:27:56.812Z,93.97
2022-10-15T01:30:25.903Z,94.60
2022-10-15T01:33:11.278Z,94.67
2022-10-15T01:35:47.741Z,93.49
2022-10-15T01:38:32.362Z,93.86
2022-10-15T01:41:00.402Z,93.66
2022-10-15T01:43:43.860Z,93.56
2022-10-15T01:46:20.683Z,93.45
2022-10-15T01:48:48.695Z,93.29
2022-10-15T01:51:17.715Z,93.69
2022-10-15T01:53:45.854Z,93.27
2022-10-15T01:56:22.492Z,93.50
2022-10-15T01:58:52.007Z,93.33
2022-10-15T02:01:18.671Z,93.43
2022-10-15T02:03:52.923Z,93.51
2022-10-15T02:06:34.510Z,93.17
2022-10-15T02:09:15.443Z,93.25
2022-10-15T02:12:06.192Z,93.76
2022-10-15T02:14:47.858Z,94.05
2022-10-15T02:17:16.405Z,94.14
2022-10-15T02:19:51.746Z,94.01
2022-10-15T02:22:26.903Z,93.88
2022-10-15T02:25:03.230Z,93.44
2022-10-15T02:27:32.900Z,93.44
2022-10-15T02:30:07.524Z,93.92
2022-10-15T02:32:35.587Z,93.87
2022-10-15T02:35:03.024Z,93.85
2022-10-15T02:37:31.094Z,93.85
2022-10-15T02:39:57.675Z,93.89
2022-10-15T02:42:25.021Z,93.97
2022-10-15T02:44:51.964Z,94.42
2022-10-15T02:47:18.607Z,93.80
2022-10-15T02:49:45.112Z,93.68
2022-10-15T02:52:11.626Z,93.89
2022-10-15T02:54:38.139Z,92.81
2022-10-15T02:57:04.631Z,92.81
2022-10-15T02:59:31.106Z,92.56
2022-10-15T03:01:57.631Z,92.63
2022-10-15T03:04:24.109Z,93.00
2022-10-15T03:06:50.878Z,93.08
2022-10-15T03:09:17.402Z,92.88
2022-10-15T03:11:43.949Z,93.17
2022-10-15T03:14:10.503Z,93.61
2022-10-15T03:16:39.370Z,93.77
2022-10-15T03:19:07.709Z,93.73
2022-10-15T03:21:34.254Z,93.78
2022-10-15T03:24:00.765Z,93.84
2022-10-15T03:26:27.502Z,93.84
2022-10-15T03:28:54.045Z,92.83
2022-10-15T03:31:20.644Z,92.79
2022-10-15T03:33:47.125Z,92.85
2022-10-15T03:36:13.715Z,93.66
2022-10-15T03:38:40.208Z,93.71
2022-10-15T03:41:07.822Z,93.40
2022-10-15T03:43:37.481Z,93.93
2022-10-15T03:46:08.104Z,94.10
2022-10-15T03:48:34.627Z,94.16
2022-10-15T03:51:01.200Z,94.49
2022-10-15T03:53:27.761Z,94.74
2022-10-15T03:55:54.430Z,94.38
2022-10-15T03:58:21.062Z,93.99
2022-10-15T04:00:47.609Z,93.98
2022-10-15T04:03:14.519Z,94.38
2022-10-15T04:05:40.991Z,94.17
2022-10-15T04:08:07.527Z,94.01
2022-10-15T04:10:34.102Z,94.20
2022-10-15T04:13:00.592Z,94.45
2022-10-15T04:15:27.875Z,94.04
2022-10-15T04:17:55.705Z,93.94
2022-10-15T04:20:22.274Z,93.91
2022-10-15T04:22:48.747Z,94.36
2022-10-15T04:25:15.521Z,94.42
2022-10-15T04:27:42.019Z,94.02
2022-10-15T04:30:09.339Z,93.15
2022-10-15T04:32:35.848Z,93.38
2022-10-15T04:35:02.310Z,94.05
2022-10-15T04:37:28.838Z,94.64
2022-10-15T04:39:55.335Z,94.07
2022-10-15T04:42:22.073Z,94.44
2022-10-15T04:44:48.545Z,94.66
2022-10-15T04:47:15.045Z,94.52
2022-10-15T04:49:41.736Z,94.45
2022-10-15T04:52:08.235Z,94.09
2022-10-15T04:54:34.722Z,94.29
2022-10-15T04:57:01.279Z,93.13
2022-10-15T04:59:27.937Z,94.84
2022-10-15T05:01:54.480Z,95.61
2022-10-15T05:04:21.022Z,95.90
2022-10-15T05:06:47.507Z,96.14
2022-10-15T05:09:14.095Z,96.74
2022-10-15T05:11:40.594Z,97.17
2022-10-15T05:14:07.734Z,96.72
2022-10-15T05:16:34.243Z,97.46
2022-10-15T05:19:03.824Z,97.07
2022-10-15T05:21:31.353Z,97.03
2022-10-15T05:23:59.358Z,96.73
2022-10-15T05:26:27.759Z,95.99
2022-10-15T05:28:56.658Z,96.74
2022-10-15T05:31:25.055Z,97.19
2022-10-15T05:33:53.415Z,97.54
2022-10-15T05:36:22.120Z,97.77
2022-10-15T05:38:51.175Z,98.31
2022-10-15T05:41:18.488Z,97.68
2022-10-15T05:43:49.353Z,97.57
2022-10-15T05:46:15.879Z,98.31
2022-10-15T05:48:42.698Z,98.50
2022-10-15T05:51:12.773Z,98.74
2022-10-15T05:53:40.577Z,98.56
2022-10-15T05:56:08.388Z,98.41
2022-10-15T05:58:37.403Z,98.76
2022-10-15T06:01:07.424Z,99.20
2022-10-15T06:03:34.707Z,99.23
2022-10-15T06:06:01.705Z,100.00
2022-10-15T06:08:29.898Z,100.00
2022-10-15T06:10:56.703Z,100.00
2022-10-15T06:13:23.930Z,100.00
2022-10-15T06:15:50.436Z,100.00
2022-10-15T06:18:17.013Z,100.00
2022-10-15T06:20:44.165Z,100.00
2022-10-15T06:23:12.130Z,100.00
2022-10-15T06:25:38.686Z,100.00
2022-10-15T06:28:06.862Z,100.00
2022-10-15T06:30:33.737Z,100.00
2022-10-15T06:33:00.508Z,100.00
2022-10-15T06:35:30.338Z,100.00
2022-10-15T06:38:03.053Z,100.00
2022-10-15T06:40:30.361Z,100.00
2022-10-15T06:43:07.970Z,100.00
2022-10-15T06:45:36.851Z,100.00
2022-10-15T06:48:07.002Z,100.00
2022-10-15T06:50:34.711Z,100.00
2022-10-15T06:53:01.424Z,100.00
2022-10-15T06:55:31.299Z,100.00
2022-10-15T06:57:58.396Z,100.00
2022-10-15T07:00:25.886Z,100.00
2022-10-15T07:02:52.618Z,100.00
2022-10-15T07:05:19.469Z,100.00
2022-10-15T07:08:03.958Z,100.00
2022-10-15T07:10:30.684Z,100.00
2022-10-15T07:13:00.576Z,100.00
2022-10-15T07:15:27.653Z,100.00
2022-10-15T07:18:01.544Z,100.00
2022-10-15T07:20:29.667Z,100.00
2022-10-15T07:23:01.246Z,100.00
2022-10-15T07:25:28.066Z,100.00
2022-10-15T07:27:55.330Z,100.00
2022-10-15T07:30:23.280Z,100.00
2022-10-15T07:32:50.271Z,100.00
2022-10-15T07:35:17.040Z,100.00
2022-10-15T07:37:43.548Z,100.00
2022-10-15T07:40:10.677Z,100.00
2022-10-15T07:42:37.229Z,100.00
2022-10-15T07:45:04.027Z,97.44
2022-10-15T07:47:30.498Z,96.74
2022-10-15T07:49:56.995Z,98.33
2022-10-15T07:52:23.613Z,97.16
2022-10-15T07:54:50.254Z,98.60
2022-10-15T07:57:17.811Z,96.43
2022-10-15T07:59:44.329Z,94.83
2022-10-15T08:02:18.035Z,89.97
2022-10-15T08:04:44.839Z,90.83
2022-10-15T08:07:11.348Z,89.46
2022-10-15T08:09:37.980Z,89.51
2022-10-15T08:12:06.830Z,89.58
2022-10-15T08:14:34.890Z,89.88
2022-10-15T08:17:05.246Z,86.11
2022-10-15T08:19:31.816Z,84.66
2022-10-15T08:21:58.360Z,84.52
2022-10-15T08:24:25.071Z,86.36
2022-10-15T08:26:51.753Z,83.24
2022-10-15T08:29:18.317Z,84.27
2022-10-15T08:31:44.858Z,83.32
2022-10-15T08:34:11.411Z,84.28
2022-10-15T08:36:37.963Z,82.60
2022-10-15T08:39:07.217Z,81.18
2022-10-15T08:41:48.229Z,78.87
2022-10-15T08:44:43.746Z,73.78
2022-10-15T08:47:32.431Z,70.31
2022-10-15T08:50:01.197Z,71.05
2022-10-15T08:52:42.199Z,69.16
2022-10-15T08:55:13.324Z,68.91
2022-10-15T08:57:43.801Z,70.39
2022-10-15T09:00:10.633Z,70.53
2022-10-15T09:02:54.189Z,70.16
2022-10-15T09:05:42.611Z,66.54
2022-10-15T09:08:29.703Z,64.04
2022-10-15T09:11:14.191Z,62.21
2022-10-15T09:13:43.800Z,62.12
2022-10-15T09:16:17.351Z,62.98
2022-10-15T09:18:47.535Z,59.39
2022-10-15T09:21:14.646Z,62.26
2022-10-15T09:23:43.723Z,62.76
2022-10-15T09:26:35.327Z,64.02
2022-10-15T09:29:32.844Z,64.22
2022-10-15T09:32:07.483Z,61.34
2022-10-15T09:35:02.392Z,59.64
2022-10-15T09:37:32.813Z,60.76
2022-10-15T09:40:28.632Z,59.47
2022-10-15T09:42:58.398Z,59.24
2022-10-15T09:45:27.241Z,60.50
2022-10-15T09:48:00.311Z,58.07
2022-10-15T09:50:39.587Z,57.88
2022-10-15T09:53:39.079Z,55.79
2022-10-15T09:56:20.018Z,55.07
2022-10-15T09:58:57.961Z,52.89
2022-10-15T10:01:28.276Z,52.36
2022-10-15T10:04:17.021Z,50.16
2022-10-15T10:06:45.206Z,51.04
2022-10-15T10:09:19.076Z,48.29
2022-10-15T10:11:49.256Z,48.40
2022-10-15T10:14:26.630Z,47.33
2022-10-15T10:17:16.625Z,47.56
2022-10-15T10:19:44.470Z,47.35
2022-10-15T10:22:20.514Z,47.93
2022-10-15T10:24:48.174Z,47.92
2022-10-15T10:27:24.630Z,48.53
2022-10-15T10:30:02.654Z,47.23
2022-10-15T10:32:34.823Z,47.40
2022-10-15T10:35:04.030Z,46.03
2022-10-15T10:37:42.638Z,45.52
2022-10-15T10:40:34.219Z,45.21
2022-10-15T10:43:24.401Z,45.98
2022-10-15T10:45:55.293Z,46.39
2022-10-15T10:48:28.238Z,47.13
2022-10-15T10:51:08.017Z,47.47
2022-10-15T10:53:46.444Z,46.63
2022-10-15T10:56:15.398Z,47.94
2022-10-15T10:58:42.729Z,46.59
2022-10-15T11:01:12.990Z,46.34
2022-10-15T11:03:45.194Z,46.75
2022-10-15T11:06:40.935Z,46.76
2022-10-15T11:09:28.791Z,47.63
2022-10-15T11:12:04.557Z,48.46
2022-10-15T11:14:53.381Z,49.02
2022-10-15T11:17:57.358Z,47.49
2022-10-15T11:20:41.196Z,47.57
2022-10-15T11:23:15.916Z,48.32
2022-10-15T11:26:03.225Z,48.34
2022-10-15T11:28:59.716Z,48.83
2022-10-15T11:31:37.146Z,48.21
2022-10-15T11:34:34.990Z,47.25
2022-10-15T11:37:29.395Z,48.19
2022-10-15T11:40:15.999Z,48.30
2022-10-15T11:43:18.068Z,48.76
2022-10-15T11:46:03.346Z,49.77
2022-10-15T11:48:58.934Z,49.87
2022-10-15T11:51:48.289Z,49.98
2022-10-15T11:54:28.699Z,50.30
2022-10-15T11:56:57.204Z,51.35
2022-10-15T11:59:26.498Z,50.11
2022-10-15T12:01:59.625Z,50.30
2022-10-15T12:04:49.979Z,48.10
2022-10-15T12:07:26.953Z,49.70
2022-10-15T12:10:00.693Z,48.78
2022-10-15T12:12:45.854Z,49.41
2022-10-15T12:15:36.843Z,49.14
2022-10-15T12:18:21.351Z,48.78
2022-10-15T12:20:47.879Z,49.26
2022-10-15T12:23:39.034Z,48.01
2022-10-15T12:26:23.894Z,48.03
2022-10-15T12:28:59.495Z,48.37
2022-10-15T12:31:51.367Z,49.38
2022-10-15T12:34:42.970Z,47.89
2022-10-15T12:37:18.168Z,47.70
2022-10-15T12:39:52.294Z,48.45
2022-10-15T12:42:27.872Z,48.99
2022-10-15T12:44:55.867Z,49.03
2022-10-15T12:48:03.692Z,48.96
2022-10-15T12:50:35.482Z,48.94
2022-10-15T12:53:25.970Z,49.36
2022-10-15T12:56:34.842Z,49.98
2022-10-15T12:59:01.475Z,49.71
2022-10-15T13:01:30.354Z,49.44
2022-10-15T13:04:00.274Z,49.62
2022-10-15T13:06:33.251Z,50.37
2022-10-15T13:09:12.023Z,51.41
2022-10-15T13:11:45.971Z,50.31
2022-10-15T13:14:12.423Z,50.49
2022-10-15T13:16:47.679Z,49.72
2022-10-15T13:19:22.199Z,51.19
2022-10-15T13:21:54.720Z,49.62
2022-10-15T13:24:27.238Z,50.91
2022-10-15T13:26:55.901Z,50.73
2022-10-15T13:29:25.236Z,50.76
2022-10-15T13:31:55.054Z,49.77
2022-10-15T13:34:34.856Z,50.45
2022-10-15T13:37:03.908Z,50.44
2022-10-15T13:39:35.070Z,51.10
2022-10-15T13:42:18.033Z,50.56
2022-10-15T13:44:55.771Z,50.14
2022-10-15T13:47:46.818Z,51.65
2022-10-15T13:50:28.346Z,51.02
2022-10-15T13:53:16.681Z,50.73
2022-10-15T13:55:49.636Z,50.62
2022-10-15T13:58:21.219Z,50.72
2022-10-15T14:00:59.048Z,51.79
2022-10-15T14:03:36.727Z,50.73
2022-10-15T14:06:15.618Z,52.71
2022-10-15T14:08:42.107Z,51.00
2022-10-15T14:11:12.786Z,50.26
2022-10-15T14:13:51.127Z,49.89
2022-10-15T14:16:29.158Z,51.95
2022-10-15T14:19:06.661Z,50.77
2022-10-15T14:21:34.627Z,52.19
2022-10-15T14:24:06.309Z,52.92
2022-10-15T14:26:34.472Z,51.27
2022-10-15T14:29:03.223Z,51.49
2022-10-15T14:31:31.381Z,53.73
2022-10-15T14:33:57.947Z,54.79
2022-10-15T14:36:30.108Z,51.21
2022-10-15T14:39:22.743Z,52.57
2022-10-15T14:42:01.490Z,52.73
2022-10-15T14:44:41.936Z,54.84
2022-10-15T14:47:20.857Z,53.95
2022-10-15T14:49:48.259Z,54.43
2022-10-15T14:52:19.795Z,53.54
2022-10-15T14:55:07.234Z,56.12
2022-10-15T14:57:38.802Z,54.62
2022-10-15T15:00:16.088Z,53.43
2022-10-15T15:02:42.782Z,53.70
2022-10-15T15:05:12.354Z,54.63
2022-10-15T15:07:40.155Z,54.33
2022-10-15T15:10:08.835Z,54.94
2022-10-15T15:12:38.100Z,54.15
2022-10-15T15:15:12.695Z,55.84
2022-10-15T15:17:39.201Z,56.06
2022-10-15T15:20:06.301Z,56.24
2022-10-15T15:22:35.574Z,55.85
2022-10-15T15:25:10.216Z,57.15
2022-10-15T15:27:37.594Z,58.16
2022-10-15T15:30:06.738Z,59.01
2022-10-15T15:32:33.638Z,59.25
2022-10-15T15:35:00.487Z,59.80
2022-10-15T15:37:29.358Z,60.09
2022-10-15T15:39:56.367Z,59.99
2022-10-15T15:42:25.860Z,60.53
2022-10-15T15:44:52.602Z,61.05
2022-10-15T15:47:19.169Z,62.86
2022-10-15T15:49:46.698Z,61.36
2022-10-15T15:52:14.109Z,62.43
2022-10-15T15:54:41.275Z,62.69
2022-10-15T15:57:07.896Z,64.13
2022-10-15T15:59:34.530Z,65.50
2022-10-15T16:02:01.612Z,66.20
2022-10-15T16:04:28.205Z,66.26
2022-10-15T16:06:54.730Z,67.45
2022-10-15T16:09:23.021Z,66.46
2022-10-15T16:11:50.746Z,69.70
2022-10-15T16:14:17.343Z,69.62
2022-10-15T16:16:44.046Z,71.18
2022-10-15T16:19:10.577Z,70.21
2022-10-15T16:21:37.149Z,73.47
2022-10-15T16:24:03.862Z,73.23
2022-10-15T16:26:30.559Z,73.58
2022-10-15T16:28:57.117Z,73.10
2022-10-15T16:31:29.572Z,73.75
2022-10-15T16:33:57.513Z,73.26
2022-10-15T16:36:24.830Z,74.89
2022-10-15T16:38:51.738Z,73.61
2022-10-15T16:41:21.658Z,73.57
2022-10-15T16:43:48.822Z,73.30
2022-10-15T16:46:17.815Z,74.17
2022-10-15T16:48:44.738Z,73.53
2022-10-15T16:51:17.067Z,73.45
2022-10-15T16:53:45.413Z,76.15
2022-10-15T16:56:17.671Z,77.51
2022-10-15T16:58:44.244Z,79.22
2022-10-15T17:01:13.206Z,78.27
2022-10-15T17:03:41.147Z,79.76
2022-10-15T17:06:13.446Z,77.86
2022-10-15T17:08:43.851Z,77.43
2022-10-15T17:11:12.459Z,78.92
2022-10-15T17:13:39.278Z,78.53
2022-10-15T17:16:19.469Z,79.72
2022-10-15T17:18:46.671Z,80.55
2022-10-15T17:21:17.234Z,80.68
2022-10-15T17:23:44.044Z,80.56
2022-10-15T17:26:13.360Z,81.50
2022-10-15T17:28:40.635Z,81.85
2022-10-15T17:31:09.713Z,81.16
2022-10-15T17:33:37.325Z,82.40
2022-10-15T17:36:05.928Z,82.13
2022-10-15T17:38:32.685Z,83.23
2022-10-15T17:40:59.971Z,83.30
2022-10-15T17:43:27.427Z,83.97
2022-10-15T17:46:01.691Z,83.55
2022-10-15T17:48:28.666Z,83.00
2022-10-15T17:50:55.454Z,82.49
2022-10-15T17:53:22.022Z,83.55
2022-10-15T17:55:48.565Z,83.39
2022-10-15T17:58:16.718Z,82.22
2022-10-15T18:00:44.316Z,84.51
2022-10-15T18:03:11.730Z,84.57
2022-10-15T18:05:38.209Z,84.55
2022-10-15T18:08:04.770Z,85.17
2022-10-15T18:10:31.399Z,85.50
2022-10-15T18:12:57.970Z,85.24
2022-10-15T18:15:24.538Z,85.86
2022-10-15T18:17:51.034Z,85.93
2022-10-15T18:20:17.680Z,85.22
2022-10-15T18:22:44.231Z,86.91
2022-10-15T18:25:10.727Z,87.23
2022-10-15T18:27:37.295Z,86.53
2022-10-15T18:30:04.126Z,86.87
2022-10-15T18:32:30.622Z,86.95
2022-10-15T18:34:57.136Z,85.72
2022-10-15T18:37:24.001Z,87.00
2022-10-15T18:39:50.695Z,87.50
2022-10-15T18:42:17.178Z,87.97
2022-10-15T18:44:43.704Z,88.32
2022-10-15T18:47:11.645Z,88.54
2022-10-15T18:49:38.774Z,87.28
2022-10-15T18:52:15.819Z,87.49
2022-10-15T18:54:52.024Z,87.74
2022-10-15T18:57:18.594Z,88.40
2022-10-15T18:59:47.357Z,87.55
2022-10-15T19:02:13.917Z,87.56
2022-10-15T19:04:40.437Z,87.97
2022-10-15T19:07:06.914Z,87.96
2022-10-15T19:09:34.655Z,89.35
2022-10-15T19:12:01.349Z,88.05
2022-10-15T19:14:28.414Z,88.37
2022-10-15T19:16:56.652Z,88.87
2022-10-15T19:19:25.298Z,89.18
2022-10-15T19:21:52.707Z,88.88
2022-10-15T19:24:21.195Z,89.12
2022-10-15T19:26:49.230Z,90.29
2022-10-15T19:29:15.983Z,89.83
2022-10-15T19:31:44.646Z,90.30
2022-10-15T19:34:11.468Z,90.42
2022-10-15T19:36:40.890Z,91.04
2022-10-15T19:39:12.891Z,92.61
2022-10-15T19:41:41.083Z,92.55
2022-10-15T19:44:08.849Z,92.41
2022-10-15T19:46:36.513Z,91.94
2022-10-15T19:49:05.049Z,92.21
2022-10-15T19:51:31.692Z,91.71
2022-10-15T19:54:00.064Z,92.12
2022-10-15T19:56:27.676Z,91.89
2022-10-15T19:58:59.238Z,91.16
2022-10-15T20:01:26.827Z,91.29
2022-10-15T20:03:53.612Z,90.54
2022-10-15T20:06:20.918Z,91.36
2022-10-15T20:08:48.114Z,91.49
2022-10-15T20:11:14.675Z,91.96
2022-10-15T20:13:41.211Z,91.61
2022-10-15T20:16:10.686Z,92.46
2022-10-15T20:18:37.302Z,92.96
2022-10-15T20:21:08.863Z,92.42
2022-10-15T20:23:37.669Z,91.42
2022-10-15T20:26:10.095Z,91.77
2022-10-15T20:28:37.787Z,93.39
2022-10-15T20:31:06.455Z,93.29
2022-10-15T20:33:33.039Z,93.42
2022-10-15T20:36:07.185Z,92.87
2022-10-15T20:38:34.558Z,92.97
2022-10-15T20:41:08.950Z,93.26
2022-10-15T20:43:35.757Z,93.36
2022-10-15T20:46:02.602Z,93.51
2022-10-15T20:48:30.684Z,93.95
2022-10-15T20:50:57.480Z,93.80
2022-10-15T20:53:25.818Z,93.23
2022-10-15T20:55:52.766Z,93.15
2022-10-15T20:58:19.299Z,92.71
2022-10-15T21:00:46.210Z,92.98
2022-10-15T21:03:13.138Z,93.40
2022-10-15T21:05:39.650Z,92.19
2022-10-15T21:08:06.297Z,93.57
2022-10-15T21:10:32.861Z,94.32
2022-10-15T21:12:59.943Z,94.39
2022-10-15T21:15:27.373Z,94.36
2022-10-15T21:17:53.880Z,93.17
2022-10-15T21:20:20.427Z,93.86
2022-10-15T21:22:46.911Z,94.73
2022-10-15T21:25:13.413Z,94.54
2022-10-15T21:27:39.911Z,92.59
2022-10-15T21:30:07.099Z,91.96
2022-10-15T21:32:33.742Z,93.08
2022-10-15T21:35:00.808Z,92.23
2022-10-15T21:37:27.644Z,92.18
2022-10-15T21:39:54.367Z,91.84
2022-10-15T21:42:20.849Z,92.41
2022-10-15T21:44:47.338Z,92.51
2022-10-15T21:47:15.259Z,92.20
2022-10-15T21:49:42.107Z,92.72
2022-10-15T21:52:08.594Z,93.32
2022-10-15T21:54:35.224Z,92.68
2022-10-15T21:57:01.729Z,92.65
2022-10-15T21:59:28.223Z,93.18
2022-10-15T22:01:54.899Z,92.12
2022-10-15T22:04:21.458Z,92.14
2022-10-15T22:06:47.924Z,92.41
2022-10-15T22:09:14.574Z,92.66
2022-10-15T22:11:41.762Z,92.47
2022-10-15T22:14:12.191Z,92.48
2022-10-15T22:16:40.143Z,92.61
2022-10-15T22:19:09.602Z,91.93
2022-10-15T22:21:38.256Z,92.95
2022-10-15T22:24:17.211Z,93.29
2022-10-15T22:26:49.696Z,93.55
2022-10-15T22:29:31.806Z,93.71
2022-10-15T22:32:02.421Z,93.94
2022-10-15T22:34:28.950Z,93.75
2022-10-15T22:36:55.447Z,91.83
2022-10-15T22:39:21.961Z,91.87
2022-10-15T22:41:48.925Z,93.02
2022-10-15T22:44:18.896Z,92.96
2022-10-15T22:46:46.767Z,92.30
2022-10-15T22:49:14.169Z,92.28
2022-10-15T22:51:41.436Z,93.43
2022-10-15T22:54:08.072Z,93.15
2022-10-15T22:56:34.796Z,92.22
2022-10-15T22:59:01.342Z,92.41
2022-10-15T23:01:30.169Z,92.61
2022-10-15T23:04:01.700Z,92.50
2022-10-15T23:06:29.099Z,93.23
2022-10-15T23:08:56.838Z,92.62
2022-10-15T23:11:24.834Z,92.77
2022-10-15T23:13:57.174Z,94.20
2022-10-15T23:16:30.219Z,94.72
2022-10-15T23:19:02.482Z,95.01
2022-10-15T23:21:49.983Z,94.91
2022-10-15T23:24:18.419Z,94.16
2022-10-15T23:26:45.092Z,94.45
2022-10-15T23:29:17.479Z,95.64
2022-10-15T23:31:44.240Z,95.43
2022-10-15T23:34:15.106Z,95.60
2022-10-15T23:36:42.808Z,96.57
2022-10-15T23:39:13.565Z,96.28
2022-10-15T23:41:40.270Z,95.35
2022-10-15T23:44:06.771Z,95.51
2022-10-15T23:46:33.274Z,95.07
2022-10-15T23:48:59.813Z,93.98
2022-10-15T23:51:28.963Z,94.22
2022-10-15T23:53:57.807Z,94.44
2022-10-15T23:56:25.475Z,94.23
2022-10-15T23:58:55.598Z,94.38
